createdAt,value
2023-10-15T00:00:21.414Z,15.26
2023-10-15T00:02:50.675Z,15.47
2023-10-15T00:05:27.312Z,15.40
2023-10-15T00:07:56.840Z,13.40
2023-10-15T00:10:26.390Z,14.11
2023-10-15T00:12:56.521Z,13.53
2023-10-15T00:15:26.891Z,14.14
2023-10-15T00:17:56.012Z,13.45
2023-10-15T00:20:32.529Z,14.26
2023-10-15T00:23:11.112Z,14.57
2023-10-15T00:25:39.675Z,13.60
2023-10-15T00:28:11.471Z,13.58
2023-10-15T00:30:41.038Z,14.66
2023-10-15T00:33:17.628Z,14.78
2023-10-15T00:35:51.254Z,13.24
2023-10-15T00:38:20.272Z,13.18
2023-10-15T00:40:53.138Z,14.10
2023-10-15T00:43:23.131Z,14.73
2023-10-15T00:45:50.956Z,15.03
2023-10-15T00:48:35.433Z,15.33
2023-10-15T00:51:12.470Z,14.93
2023-10-15T00:53:50.165Z,14.85
2023-10-15T00:56:23.889Z,15.19
2023-10-15T00:58:54.425Z,14.64
2023-10-15T01:01:27.676Z,13.98
2023-10-15T01:04:00.779Z,14.90
2023-10-15T01:06:35.571Z,13.03
2023-10-15T01:09:12.194Z,13.38
2023-10-15T01:11:52.472Z,14.02
2023-10-15T01:14:49.229Z,14.77
2023-10-15T01:17:17.567Z,14.25
2023-10-15T01:19:46.444Z,13.24
2023-10-15T01:22:21.687Z,13.19
2023-10-15T01:24:51.933Z,12.73
2023-10-15T01:27:28.831Z,12.96
2023-10-15T01:30:00.060Z,14.31
2023-10-15T01:32:27.713Z,14.89
2023-10-15T01:34:56.883Z,14.72
2023-10-15T01:37:24.482Z,14.72
2023-10-15T01:39:53.996Z,13.94
2023-10-15T01:42:33.944Z,14.04
2023-10-15T01:45:14.685Z,14.55
2023-10-15T01:48:05.439Z,14.89
2023-10-15T01:50:54.121Z,15.04
2023-10-15T01:53:24.894Z,15.35
2023-10-15T01:56:00.718Z,15.30
2023-10-15T01:58:34.461Z,15.32
2023-10-15T02:01:10.917Z,15.48
2023-10-15T02:03:38.466Z,15.53
2023-10-15T02:06:07.165Z,15.23
2023-10-15T02:08:37.810Z,14.72
2023-10-15T02:11:22.804Z,14.94
2023-10-15T02:13:51.336Z,15.24
2023-10-15T02:16:31.454Z,14.50
2023-10-15T02:18:59.856Z,13.00
2023-10-15T02:21:32.744Z,12.74
2023-10-15T02:24:09.413Z,13.60
2023-10-15T02:26:37.825Z,14.24
2023-10-15T02:29:31.302Z,13.97
2023-10-15T02:32:18.897Z,13.23
2023-10-15T02:34:46.315Z,13.99
2023-10-15T02:37:18.667Z,14.03
2023-10-15T02:39:52.271Z,14.33
2023-10-15T02:42:21.268Z,14.50
2023-10-15T02:44:54.931Z,14.58
2023-10-15T02:47:42.935Z,13.96
2023-10-15T02:50:18.474Z,14.38
2023-10-15T02:52:50.096Z,14.59
2023-10-15T02:55:28.110Z,14.88
2023-10-15T02:58:02.267Z,14.83
2023-10-15T03:00:30.083Z,14.75
2023-10-15T03:02:58.667Z,14.43
2023-10-15T03:05:31.981Z,13.68
2023-10-15T03:08:01.906Z,13.89
2023-10-15T03:10:56.884Z,14.31
2023-10-15T03:13:25.629Z,13.93
2023-10-15T03:15:54.156Z,12.66
2023-10-15T03:18:24.508Z,12.62
2023-10-15T03:21:10.603Z,12.41
2023-10-15T03:23:40.653Z,12.34
2023-10-15T03:26:10.186Z,13.19
2023-10-15T03:28:45.195Z,12.42
2023-10-15T03:31:15.697Z,12.58
2023-10-15T03:34:00.641Z,13.34
2023-10-15T03:36:28.067Z,13.24
2023-10-15T03:38:58.861Z,13.35
2023-10-15T03:41:30.646Z,13.57
2023-10-15T03:44:04.681Z,14.13
2023-10-15T03:46:35.517Z,13.89
2023-10-15T03:49:09.130Z,13.93
2023-10-15T03:51:42.165Z,13.99
2023-10-15T03:54:09.737Z,14.32
2023-10-15T03:56:37.077Z,14.68
2023-10-15T03:59:04.577Z,14.85
2023-10-15T04:01:31.919Z,14.75
2023-10-15T04:04:03.514Z,14.63
2023-10-15T04:06:30.977Z,14.95
2023-10-15T04:09:04.106Z,14.94
2023-10-15T04:11:53.945Z,14.86
2023-10-15T04:14:30.162Z,15.04
2023-10-15T04:16:58.731Z,13.36
2023-10-15T04:19:34.316Z,13.49
2023-10-15T04:22:29.529Z,14.09
2023-10-15T04:24:56.843Z,14.36
2023-10-15T04:27:28.102Z,15.02
2023-10-15T04:29:56.666Z,15.02
2023-10-15T04:32:30.621Z,15.29
2023-10-15T04:35:12.489Z,14.49
2023-10-15T04:37:39.916Z,14.70
2023-10-15T04:40:18.409Z,14.81
2023-10-15T04:42:53.097Z,14.97
2023-10-15T04:45:43.362Z,14.29
2023-10-15T04:48:15.150Z,13.47
2023-10-15T04:50:44.891Z,12.07
2023-10-15T04:53:25.349Z,11.43
2023-10-15T04:55:56.033Z,10.88
2023-10-15T04:58:28.508Z,10.71
2023-10-15T05:00:56.349Z,11.33
2023-10-15T05:03:23.787Z,11.22
2023-10-15T05:05:52.250Z,11.64
2023-10-15T05:08:19.461Z,11.95
2023-10-15T05:10:51.337Z,12.71
2023-10-15T05:13:19.226Z,12.39
2023-10-15T05:15:49.421Z,12.29
2023-10-15T05:18:16.909Z,12.39
2023-10-15T05:20:44.475Z,12.48
2023-10-15T05:23:12.394Z,12.94
2023-10-15T05:25:41.574Z,12.42
2023-10-15T05:28:09.824Z,12.50
2023-10-15T05:30:41.436Z,12.80
2023-10-15T05:33:09.312Z,13.60
2023-10-15T05:35:38.867Z,14.24
2023-10-15T05:38:10.321Z,14.62
2023-10-15T05:40:38.776Z,14.57
2023-10-15T05:43:06.293Z,13.54
2023-10-15T05:45:33.534Z,12.23
2023-10-15T05:48:01.901Z,12.77
2023-10-15T05:50:30.059Z,13.38
2023-10-15T05:52:57.525Z,13.10
2023-10-15T05:55:25.046Z,12.20
2023-10-15T05:57:52.266Z,12.94
2023-10-15T06:00:19.938Z,12.29
2023-10-15T06:02:51.902Z,12.16
2023-10-15T06:05:19.560Z,12.99
2023-10-15T06:07:47.405Z,11.77
2023-10-15T06:10:14.818Z,11.26
2023-10-15T06:12:42.731Z,11.43
2023-10-15T06:15:10.912Z,10.85
2023-10-15T06:17:38.329Z,11.58
2023-10-15T06:20:15.291Z,11.21
2023-10-15T06:22:43.953Z,10.29
2023-10-15T06:25:13.750Z,9.96
2023-10-15T06:27:41.828Z,10.35
2023-10-15T06:30:18.624Z,10.30
2023-10-15T06:32:51.692Z,11.42
2023-10-15T06:35:21.377Z,10.10
2023-10-15T06:37:50.179Z,10.94
2023-10-15T06:40:22.416Z,10.62
2023-10-15T06:42:54.136Z,10.59
2023-10-15T06:45:22.246Z,11.36
2023-10-15T06:47:55.326Z,12.77
2023-10-15T06:50:27.377Z,12.22
2023-10-15T06:52:56.407Z,11.85
2023-10-15T06:55:24.013Z,12.31
2023-10-15T06:57:51.523Z,10.76
2023-10-15T07:00:26.055Z,11.45
2023-10-15T07:02:55.663Z,11.77
2023-10-15T07:05:29.840Z,11.83
2023-10-15T07:08:00.461Z,11.23
2023-10-15T07:10:29.264Z,11.69
2023-10-15T07:12:58.132Z,11.97
2023-10-15T07:15:25.809Z,11.51
2023-10-15T07:17:53.643Z,10.99
2023-10-15T07:20:28.531Z,11.01
2023-10-15T07:23:01.505Z,11.36
2023-10-15T07:25:29.185Z,12.01
2023-10-15T07:27:57.981Z,13.28
2023-10-15T07:30:26.636Z,11.81
2023-10-15T07:32:58.652Z,11.70
2023-10-15T07:35:30.668Z,11.07
2023-10-15T07:37:59.053Z,10.74
2023-10-15T07:40:27.780Z,10.60
2023-10-15T07:43:00.128Z,11.06
2023-10-15T07:45:29.672Z,12.09
2023-10-15T07:48:00.927Z,11.72
2023-10-15T07:50:29.905Z,11.46
2023-10-15T07:52:57.322Z,10.63
2023-10-15T07:55:24.685Z,10.81
2023-10-15T07:57:52.694Z,11.24
2023-10-15T08:00:31.615Z,10.71
2023-10-15T08:03:00.865Z,10.33
2023-10-15T08:05:30.037Z,11.20
2023-10-15T08:07:58.977Z,10.61
2023-10-15T08:10:33.119Z,10.55
2023-10-15T08:13:01.179Z,10.53
2023-10-15T08:15:28.916Z,10.68
2023-10-15T08:17:58.438Z,10.30
2023-10-15T08:20:26.051Z,10.32
2023-10-15T08:22:53.376Z,10.28
2023-10-15T08:25:24.075Z,10.39
2023-10-15T08:28:22.149Z,10.70
2023-10-15T08:30:54.593Z,10.85
2023-10-15T08:33:21.822Z,11.38
2023-10-15T08:35:50.628Z,10.98
2023-10-15T08:38:17.931Z,11.46
2023-10-15T08:40:46.677Z,12.94
2023-10-15T08:43:22.958Z,12.87
2023-10-15T08:45:50.370Z,11.90
2023-10-15T08:48:19.414Z,11.33
2023-10-15T08:50:48.118Z,11.22
2023-10-15T08:53:16.217Z,10.95
2023-10-15T08:55:43.756Z,10.97
2023-10-15T08:58:11.152Z,11.15
2023-10-15T09:00:40.496Z,11.34
2023-10-15T09:03:08.494Z,11.44
2023-10-15T09:05:38.307Z,11.39
2023-10-15T09:08:10.001Z,11.17
2023-10-15T09:10:42.066Z,11.54
2023-10-15T09:13:17.417Z,11.26
2023-10-15T09:15:47.846Z,11.30
2023-10-15T09:18:18.999Z,11.29
2023-10-15T09:20:48.501Z,12.36
2023-10-15T09:23:16.742Z,11.53
2023-10-15T09:25:44.422Z,11.62
2023-10-15T09:28:12.401Z,11.51
2023-10-15T09:30:39.786Z,12.19
2023-10-15T09:33:13.757Z,12.71
2023-10-15T09:35:42.396Z,11.95
2023-10-15T09:38:15.723Z,11.86
2023-10-15T09:40:46.577Z,11.91
2023-10-15T09:43:14.986Z,11.77
2023-10-15T09:45:43.422Z,11.87
2023-10-15T09:48:12.109Z,11.72
2023-10-15T09:50:40.026Z,11.71
2023-10-15T09:53:14.201Z,11.79
2023-10-15T09:55:42.238Z,11.61
2023-10-15T09:58:11.883Z,11.81
2023-10-15T10:00:55.021Z,12.01
2023-10-15T10:03:50.571Z,12.83
2023-10-15T10:06:48.690Z,12.69
2023-10-15T10:09:55.242Z,13.08
2023-10-15T10:12:41.309Z,12.59
2023-10-15T10:15:33.733Z,12.47
2023-10-15T10:18:01.693Z,11.84
2023-10-15T10:20:38.322Z,12.51
2023-10-15T10:23:07.576Z,12.42
2023-10-15T10:25:37.914Z,12.27
2023-10-15T10:28:17.312Z,13.21
2023-10-15T10:31:02.093Z,13.64
2023-10-15T10:34:03.014Z,13.95
2023-10-15T10:36:31.946Z,13.05
2023-10-15T10:39:14.590Z,12.95
2023-10-15T10:41:44.496Z,13.07
2023-10-15T10:44:31.745Z,12.74
2023-10-15T10:46:59.245Z,12.65
2023-10-15T10:49:41.965Z,12.97
2023-10-15T10:52:18.132Z,12.48
2023-10-15T10:54:48.313Z,12.56
2023-10-15T10:57:19.319Z,12.71
2023-10-15T10:59:46.809Z,12.22
2023-10-15T11:02:16.602Z,12.45
2023-10-15T11:04:44.311Z,12.13
2023-10-15T11:07:12.708Z,12.61
2023-10-15T11:09:40.220Z,12.79
2023-10-15T11:12:10.404Z,12.79
2023-10-15T11:14:38.158Z,12.84
2023-10-15T11:17:07.468Z,13.58
2023-10-15T11:19:34.960Z,13.09
2023-10-15T11:22:02.977Z,12.38
2023-10-15T11:24:34.453Z,12.34
2023-10-15T11:27:02.803Z,12.23
2023-10-15T11:29:33.039Z,12.66
2023-10-15T11:32:01.995Z,13.10
2023-10-15T11:34:29.979Z,12.53
2023-10-15T11:36:58.329Z,12.80
2023-10-15T11:39:40.024Z,12.49
2023-10-15T11:42:09.060Z,13.00
2023-10-15T11:44:43.967Z,13.15
2023-10-15T11:47:25.788Z,13.55
2023-10-15T11:49:53.360Z,13.45
2023-10-15T11:52:24.335Z,13.48
2023-10-15T11:54:52.419Z,14.16
2023-10-15T11:57:24.446Z,13.41
2023-10-15T11:59:56.394Z,13.80
2023-10-15T12:02:25.788Z,13.37
2023-10-15T12:04:53.844Z,14.04
2023-10-15T12:07:23.768Z,13.33
2023-10-15T12:09:51.778Z,13.05
2023-10-15T12:12:19.645Z,13.31
2023-10-15T12:14:47.417Z,12.92
2023-10-15T12:17:17.864Z,13.60
2023-10-15T12:19:46.428Z,14.20
2023-10-15T12:22:17.510Z,13.46
2023-10-15T12:24:45.102Z,13.33
2023-10-15T12:27:13.310Z,13.30
2023-10-15T12:29:41.117Z,13.69
2023-10-15T12:32:13.758Z,14.26
2023-10-15T12:34:41.448Z,14.71
2023-10-15T12:37:11.239Z,14.26
2023-10-15T12:39:41.994Z,15.05
2023-10-15T12:42:11.169Z,15.28
2023-10-15T12:44:41.746Z,13.76
2023-10-15T12:47:13.360Z,13.34
2023-10-15T12:49:41.183Z,13.32
2023-10-15T12:52:09.672Z,14.71
2023-10-15T12:54:38.025Z,14.40
2023-10-15T12:57:05.732Z,13.58
2023-10-15T12:59:36.600Z,13.73
2023-10-15T13:02:05.349Z,13.78
2023-10-15T13:04:32.947Z,14.15
2023-10-15T13:07:00.225Z,13.56
2023-10-15T13:09:27.719Z,13.18
2023-10-15T13:11:55.165Z,13.40
2023-10-15T13:14:22.421Z,13.57
2023-10-15T13:16:52.088Z,13.77
2023-10-15T13:19:20.856Z,13.92
2023-10-15T13:21:48.070Z,13.42
2023-10-15T13:24:16.153Z,13.52
2023-10-15T13:26:46.356Z,13.50
2023-10-15T13:29:13.718Z,13.92
2023-10-15T13:31:41.036Z,14.06
2023-10-15T13:34:10.129Z,13.66
2023-10-15T13:36:37.464Z,14.45
2023-10-15T13:39:08.135Z,14.90
2023-10-15T13:41:35.919Z,13.78
2023-10-15T13:44:03.409Z,14.10
2023-10-15T13:46:30.660Z,13.43
2023-10-15T13:48:57.909Z,14.31
2023-10-15T13:51:26.368Z,13.76
2023-10-15T13:53:53.717Z,13.81
2023-10-15T13:56:23.937Z,14.80
2023-10-15T13:58:51.053Z,13.91
2023-10-15T14:01:18.830Z,13.79
2023-10-15T14:03:46.858Z,14.21
2023-10-15T14:06:14.383Z,14.20
2023-10-15T14:08:41.580Z,14.03
2023-10-15T14:11:11.347Z,13.94
2023-10-15T14:13:38.912Z,14.06
2023-10-15T14:16:06.653Z,14.67
2023-10-15T14:18:34.810Z,14.33
2023-10-15T14:21:02.679Z,14.49
2023-10-15T14:23:31.099Z,13.80
2023-10-15T14:25:58.312Z,13.84
2023-10-15T14:28:25.928Z,13.79
2023-10-15T14:30:54.315Z,14.16
2023-10-15T14:33:21.907Z,14.57
2023-10-15T14:35:49.319Z,15.42
2023-10-15T14:38:17.970Z,14.40
2023-10-15T14:40:46.338Z,13.79
2023-10-15T14:43:13.635Z,13.48
2023-10-15T14:45:40.984Z,13.51
2023-10-15T14:48:09.341Z,13.78
2023-10-15T14:50:38.979Z,13.84
2023-10-15T14:53:07.296Z,14.26
2023-10-15T14:55:36.089Z,14.24
2023-10-15T14:58:03.830Z,14.55
2023-10-15T15:00:33.527Z,14.01
2023-10-15T15:03:00.839Z,14.93
2023-10-15T15:05:28.242Z,14.49
2023-10-15T15:07:55.596Z,14.06
2023-10-15T15:10:22.838Z,14.09
2023-10-15T15:12:50.348Z,14.77
2023-10-15T15:15:17.910Z,13.66
2023-10-15T15:17:45.244Z,13.75
2023-10-15T15:20:13.002Z,13.60
2023-10-15T15:22:42.572Z,13.81
2023-10-15T15:25:11.561Z,13.62
2023-10-15T15:27:51.427Z,13.32
2023-10-15T15:30:21.104Z,13.24
2023-10-15T15:32:49.772Z,13.39
2023-10-15T15:35:17.303Z,13.24
2023-10-15T15:37:45.131Z,13.21
2023-10-15T15:40:21.232Z,13.13
2023-10-15T15:42:48.437Z,13.36
2023-10-15T15:45:16.854Z,13.40
2023-10-15T15:47:44.252Z,14.01
2023-10-15T15:50:12.928Z,13.77
2023-10-15T15:52:41.910Z,14.65
2023-10-15T15:55:09.375Z,15.14
2023-10-15T15:57:37.059Z,15.05
2023-10-15T16:00:04.654Z,14.25
2023-10-15T16:02:38.741Z,13.42
2023-10-15T16:05:06.644Z,12.98
2023-10-15T16:07:34.099Z,13.28
2023-10-15T16:10:02.536Z,13.31
2023-10-15T16:12:32.122Z,12.91
2023-10-15T16:14:59.436Z,12.92
2023-10-15T16:17:26.756Z,12.92
2023-10-15T16:19:54.000Z,12.77
2023-10-15T16:22:21.639Z,12.88
2023-10-15T16:25:00.468Z,12.73
2023-10-15T16:27:33.994Z,12.56
2023-10-15T16:30:02.376Z,12.71
2023-10-15T16:32:29.864Z,12.83
2023-10-15T16:34:57.235Z,12.65
2023-10-15T16:37:24.469Z,12.57
2023-10-15T16:39:51.902Z,12.63
2023-10-15T16:42:19.188Z,12.53
2023-10-15T16:44:47.531Z,12.64
2023-10-15T16:47:14.750Z,12.48
2023-10-15T16:49:42.223Z,12.41
2023-10-15T16:52:09.583Z,12.35
2023-10-15T16:54:37.397Z,12.55
2023-10-15T16:57:05.339Z,12.92
2023-10-15T16:59:38.745Z,13.13
2023-10-15T17:02:09.231Z,13.85
2023-10-15T17:04:36.856Z,12.65
2023-10-15T17:07:04.768Z,12.42
2023-10-15T17:09:32.070Z,12.44
2023-10-15T17:11:59.293Z,12.21
2023-10-15T17:14:26.546Z,12.15
2023-10-15T17:16:54.819Z,12.55
2023-10-15T17:19:22.133Z,13.62
2023-10-15T17:21:50.030Z,13.28
2023-10-15T17:24:18.123Z,12.54
2023-10-15T17:26:45.356Z,12.96
2023-10-15T17:29:12.993Z,12.95
2023-10-15T17:31:40.715Z,12.35
2023-10-15T17:34:08.035Z,12.13
2023-10-15T17:36:39.816Z,12.32
2023-10-15T17:39:20.074Z,12.20
2023-10-15T17:41:49.219Z,12.43
2023-10-15T17:44:17.090Z,12.24
2023-10-15T17:46:44.414Z,12.82
2023-10-15T17:49:12.073Z,12.74
2023-10-15T17:51:39.601Z,12.85
2023-10-15T17:54:08.665Z,12.62
2023-10-15T17:56:44.931Z,12.22
2023-10-15T17:59:12.258Z,12.13
2023-10-15T18:01:40.859Z,12.21
2023-10-15T18:04:08.647Z,12.35
2023-10-15T18:06:38.076Z,12.09
2023-10-15T18:09:05.589Z,13.02
2023-10-15T18:11:32.832Z,13.65
2023-10-15T18:14:01.098Z,13.80
2023-10-15T18:16:28.467Z,13.19
2023-10-15T18:19:01.206Z,13.14
2023-10-15T18:21:29.172Z,13.00
2023-10-15T18:23:56.447Z,12.56
2023-10-15T18:26:24.591Z,12.49
2023-10-15T18:29:31.453Z,13.09
2023-10-15T18:31:43.664Z,13.24
2023-10-15T18:34:13.317Z,12.70
2023-10-15T18:36:41.008Z,12.40
2023-10-15T18:39:12.437Z,12.46
2023-10-15T18:41:40.021Z,12.64
2023-10-15T18:44:07.323Z,12.58
2023-10-15T18:46:34.588Z,13.21
2023-10-15T18:49:03.711Z,13.42
2023-10-15T18:51:37.712Z,13.41
2023-10-15T18:54:05.766Z,12.98
2023-10-15T18:56:35.947Z,12.58
2023-10-15T18:59:04.016Z,12.59
2023-10-15T19:01:33.030Z,12.44
2023-10-15T19:04:01.045Z,13.16
2023-10-15T19:06:28.555Z,13.67
2023-10-15T19:08:56.035Z,14.09
2023-10-15T19:11:23.372Z,14.45
2023-10-15T19:13:51.863Z,14.52
2023-10-15T19:16:19.062Z,13.30
2023-10-15T19:18:47.134Z,13.49
2023-10-15T19:21:14.685Z,13.71
2023-10-15T19:23:45.144Z,12.73
2023-10-15T19:26:12.483Z,13.00
2023-10-15T19:28:39.998Z,12.90
2023-10-15T19:31:09.023Z,12.56
2023-10-15T19:33:37.132Z,12.26
2023-10-15T19:36:04.669Z,12.29
2023-10-15T19:38:32.263Z,12.13
2023-10-15T19:41:04.780Z,12.21
2023-10-15T19:43:32.377Z,11.96
2023-10-15T19:46:00.379Z,11.84
2023-10-15T19:48:28.657Z,12.33
2023-10-15T19:50:56.001Z,13.64
2023-10-15T19:53:41.849Z,13.23
2023-10-15T19:56:16.480Z,14.24
2023-10-15T19:58:43.977Z,14.80
2023-10-15T20:01:11.739Z,14.68
2023-10-15T20:03:47.493Z,13.83
2023-10-15T20:06:18.214Z,13.32
2023-10-15T20:08:46.032Z,12.98
2023-10-15T20:11:13.916Z,12.84
2023-10-15T20:13:41.161Z,13.26
2023-10-15T20:16:09.881Z,13.57
2023-10-15T20:18:37.275Z,12.85
2023-10-15T20:21:04.515Z,11.82
2023-10-15T20:23:31.951Z,11.47
2023-10-15T20:25:59.249Z,12.12
2023-10-15T20:28:26.589Z,13.07
2023-10-15T20:30:54.357Z,13.54
2023-10-15T20:33:21.565Z,13.93
2023-10-15T20:35:50.104Z,14.24
2023-10-15T20:38:17.466Z,14.14
2023-10-15T20:40:45.223Z,14.18
2023-10-15T20:43:12.637Z,14.94
2023-10-15T20:45:39.908Z,14.17
2023-10-15T20:48:07.538Z,13.81
2023-10-15T20:50:35.921Z,13.55
2023-10-15T20:53:03.305Z,13.89
2023-10-15T20:55:30.836Z,14.14
2023-10-15T20:57:58.215Z,14.22
2023-10-15T21:00:25.550Z,14.32
2023-10-15T21:02:54.430Z,14.07
2023-10-15T21:05:21.999Z,14.17
2023-10-15T21:07:50.682Z,14.08
2023-10-15T21:10:18.256Z,14.06
2023-10-15T21:12:45.772Z,14.24
2023-10-15T21:15:13.796Z,14.46
2023-10-15T21:17:45.498Z,14.13
2023-10-15T21:23:21.588Z,14.92
2023-10-15T21:25:49.664Z,14.24
2023-10-15T21:28:17.821Z,13.75
2023-10-15T21:30:45.125Z,13.60
2023-10-15T21:33:12.647Z,13.95
2023-10-15T21:35:39.964Z,13.80
2023-10-15T21:38:07.262Z,13.90
2023-10-15T21:40:34.703Z,13.87
2023-10-15T21:43:02.057Z,14.13
2023-10-15T21:45:29.383Z,14.11
2023-10-15T21:47:57.041Z,13.55
2023-10-15T21:50:24.472Z,13.13
2023-10-15T21:52:51.763Z,13.45
2023-10-15T21:55:19.077Z,14.03
2023-10-15T21:57:46.473Z,14.42
2023-10-15T22:00:29.507Z,14.47
2023-10-15T22:02:58.305Z,14.00
2023-10-15T22:05:26.239Z,14.00
2023-10-15T22:07:53.779Z,14.34
2023-10-15T22:10:22.447Z,14.42
2023-10-15T22:12:52.304Z,14.40
2023-10-15T22:15:19.577Z,14.23
2023-10-15T22:17:48.487Z,13.75
2023-10-15T22:20:22.538Z,12.71
2023-10-15T22:22:49.892Z,12.69
2023-10-15T22:25:17.143Z,12.67
2023-10-15T22:27:44.920Z,12.57
2023-10-15T22:30:19.933Z,13.15
2023-10-15T22:32:51.562Z,13.29
2023-10-15T22:35:22.967Z,13.63
2023-10-15T22:37:50.775Z,14.14
2023-10-15T22:40:18.399Z,14.32
2023-10-15T22:42:45.724Z,14.47
2023-10-15T22:45:13.169Z,14.36
2023-10-15T22:47:40.477Z,14.63
2023-10-15T22:50:10.113Z,14.61
2023-10-15T22:52:38.314Z,14.78
2023-10-15T22:55:09.079Z,14.07
2023-10-15T22:57:40.817Z,13.78
2023-10-15T23:00:13.025Z,12.87
2023-10-15T23:02:42.138Z,12.14
2023-10-15T23:05:10.726Z,11.81
2023-10-15T23:07:40.605Z,11.29
2023-10-15T23:10:08.912Z,11.19
2023-10-15T23:12:37.581Z,10.83
2023-10-15T23:15:08.777Z,10.95
2023-10-15T23:17:36.157Z,10.79
2023-10-15T23:20:27.652Z,11.36
2023-10-15T23:22:57.703Z,12.11
2023-10-15T23:25:29.645Z,12.45
2023-10-15T23:27:58.355Z,12.89
2023-10-15T23:30:25.757Z,12.93
2023-10-15T23:32:54.514Z,11.81
2023-10-15T23:35:22.794Z,11.18
2023-10-15T23:37:50.122Z,10.72
2023-10-15T23:40:22.396Z,10.70
2023-10-15T23:42:50.510Z,10.72
2023-10-15T23:45:27.293Z,10.96
2023-10-15T23:48:08.038Z,11.16
2023-10-15T23:50:35.472Z,11.35
2023-10-15T23:53:05.479Z,11.09
2023-10-15T23:55:36.898Z,11.21
2023-10-15T23:58:05.181Z,11.21
